Minot, North Dakota
Current Conditions -  °F | °C
As of 10:23 PM on Friday 19 Dec 2014 (Local Time) from KMOT Reporting Station
Haze Haze  
Wind Chill: 16°   Ceiling: 200
Heat Index: 25°   Visibility: 1.7mi
Dew Point: 22°   Wind: 8mph
Humidity: 88%   Direction: 200°SSW
Pressure: 29.93"   Gusts: NA
Location:  48.24°N, 101.29°W
Report Text: KMOT 200423Z 20007KT 1 3/4SM BR OVC002 M04/M06 A2993 RMK AO2 T10391056
Loading
Personal Weather Stations






























Interactive Weather Map New forecast layout! Learn more

10-Day Weather Forecast

Advertisements
Track Severe Weather on mobile